Terminal Aerodrome Forecast
Issued by NWS

Home | Current Version | Previous Version | Text Only | Print | Product List | Glossary On
Versions: 1 2 3 4 5 6 7 8 9 10 11 12 13 14 15
000
FTUS44 KEPZ 012300 RRA
TAFDMN
TAF
KDMN 012349Z 0200/0224 11007KT P6SM SCT050 BKN120
     FM020200 07007KT P6SM -SHRA SCT020 BKN040 OVC100
     FM021500 07007KT P6SM VCSH SCT015 BKN040 OVC100
     FM021900 12007KT P6SM FEW025 SCT040 BKN100=

USA.gov is the U.S. government's official web portal to all federal, state and local government web resources and services.